createdAt,value
2023-03-22T00:02:13.816Z,12.43
2023-03-22T00:04:42.930Z,13.68
2023-03-22T00:07:09.792Z,17.17
2023-03-22T00:09:36.740Z,15.93
2023-03-22T00:12:03.910Z,11.68
2023-03-22T00:14:30.739Z,12.90
2023-03-22T00:16:57.560Z,12.68
2023-03-22T00:19:24.545Z,14.77
2023-03-22T00:21:51.549Z,10.50
2023-03-22T00:24:18.476Z,11.50
2023-03-22T00:26:47.473Z,10.90
2023-03-22T00:29:14.275Z,9.90
2023-03-22T00:31:41.388Z,8.55
2023-03-22T00:34:08.302Z,11.82
2023-03-22T00:36:37.876Z,13.52
2023-03-22T00:39:04.766Z,11.05
2023-03-22T00:41:31.659Z,13.35
2023-03-22T00:43:58.551Z,12.38
2023-03-22T00:46:25.991Z,13.00
2023-03-22T00:48:52.964Z,11.25
2023-03-22T00:51:19.772Z,10.93
2023-03-22T00:53:49.922Z,10.27
2023-03-22T00:56:16.782Z,11.63
2023-03-22T00:58:43.744Z,8.77
2023-03-22T01:01:13.669Z,11.05
2023-03-22T01:03:41.639Z,10.80
2023-03-22T01:06:09.022Z,12.48
2023-03-22T01:08:39.154Z,8.45
2023-03-22T01:11:07.202Z,11.38
2023-03-22T01:13:34.413Z,10.30
2023-03-22T01:16:01.220Z,8.40
2023-03-22T01:18:28.070Z,11.68
2023-03-22T01:20:55.032Z,10.05
2023-03-22T01:23:21.856Z,12.20
2023-03-22T01:25:48.789Z,12.23
2023-03-22T01:28:15.781Z,9.75
2023-03-22T01:30:42.944Z,10.88
2023-03-22T01:33:09.861Z,10.13
2023-03-22T01:35:36.981Z,9.27
2023-03-22T01:38:04.090Z,12.68
2023-03-22T01:40:31.116Z,10.85
2023-03-22T01:42:57.919Z,9.13
2023-03-22T01:45:30.458Z,11.10
2023-03-22T01:48:03.609Z,12.70
2023-03-22T01:50:31.312Z,10.40
2023-03-22T01:52:58.275Z,13.13
2023-03-22T01:55:26.033Z,12.80
2023-03-22T01:57:52.830Z,13.95
2023-03-22T02:00:20.607Z,13.52
2023-03-22T02:02:49.478Z,11.73
2023-03-22T02:05:16.513Z,11.70
2023-03-22T02:07:43.600Z,10.05
2023-03-22T02:10:12.686Z,12.40
2023-03-22T02:13:07.496Z,10.55
2023-03-22T02:15:40.054Z,11.60
2023-03-22T02:18:30.325Z,9.77
2023-03-22T02:21:21.319Z,12.20
2023-03-22T02:24:09.671Z,12.68
2023-03-22T02:27:09.239Z,11.60
2023-03-22T02:29:45.052Z,13.02
2023-03-22T02:32:37.615Z,10.52
2023-03-22T02:35:16.306Z,12.20
2023-03-22T02:38:10.871Z,12.85
2023-03-22T02:40:47.469Z,14.20
2023-03-22T02:43:34.577Z,10.10
2023-03-22T02:46:07.238Z,13.30
2023-03-22T02:48:50.788Z,9.45
2023-03-22T02:51:27.152Z,11.73
2023-03-22T02:54:01.200Z,14.90
2023-03-22T02:56:47.078Z,13.45
2023-03-22T02:59:13.958Z,11.77
2023-03-22T03:01:46.286Z,11.43
2023-03-22T03:04:26.839Z,9.65
2023-03-22T03:06:56.069Z,9.50
2023-03-22T03:09:22.873Z,13.30
2023-03-22T03:11:51.976Z,16.50
2023-03-22T03:14:39.069Z,11.70
2023-03-22T03:17:24.043Z,13.50
2023-03-22T03:20:18.449Z,12.73
2023-03-22T03:23:07.351Z,14.63
2023-03-22T03:25:46.351Z,17.67
2023-03-22T03:28:38.289Z,15.82
2023-03-22T03:31:20.518Z,14.05
2023-03-22T03:34:14.992Z,15.68
2023-03-22T03:36:44.637Z,13.48
2023-03-22T03:39:12.766Z,12.45
2023-03-22T03:41:39.597Z,11.35
2023-03-22T03:44:06.649Z,12.07
2023-03-22T03:46:33.495Z,13.63
2023-03-22T03:49:00.495Z,14.60
2023-03-22T03:51:27.469Z,10.43
2023-03-22T03:53:54.302Z,8.93
2023-03-22T03:56:21.187Z,9.73
2023-03-22T03:58:47.967Z,11.50
2023-03-22T04:01:14.862Z,11.90
2023-03-22T04:03:41.643Z,13.95
2023-03-22T04:06:09.098Z,15.73
2023-03-22T04:08:35.908Z,11.75
2023-03-22T04:11:02.715Z,9.95
2023-03-22T04:13:29.908Z,10.13
2023-03-22T04:15:58.115Z,11.23
2023-03-22T04:18:24.902Z,15.77
2023-03-22T04:20:53.623Z,19.92
2023-03-22T04:23:23.068Z,11.10
2023-03-22T04:25:50.468Z,10.50
2023-03-22T04:28:19.784Z,13.85
2023-03-22T04:30:51.041Z,10.48
2023-03-22T04:33:18.591Z,14.00
2023-03-22T04:35:48.493Z,13.75
2023-03-22T04:38:16.565Z,16.27
2023-03-22T04:40:46.664Z,13.95
2023-03-22T04:43:13.951Z,13.90
2023-03-22T04:45:42.160Z,12.75
2023-03-22T04:48:10.475Z,10.50
2023-03-22T04:50:39.102Z,10.23
2023-03-22T04:53:06.910Z,11.00
2023-03-22T04:55:34.293Z,12.55
2023-03-22T04:58:01.157Z,13.60
2023-03-22T05:00:30.208Z,11.35
2023-03-22T05:02:57.889Z,11.00
2023-03-22T05:05:24.731Z,16.90
2023-03-22T05:07:51.581Z,19.27
2023-03-22T05:10:18.502Z,12.88
2023-03-22T05:12:45.372Z,14.50
2023-03-22T05:15:12.205Z,13.52
2023-03-22T05:17:38.998Z,29.75
2023-03-22T05:20:10.057Z,35.28
2023-03-22T05:22:40.607Z,37.13
2023-03-22T05:25:08.243Z,26.77
2023-03-22T05:27:35.188Z,30.95
2023-03-22T05:30:02.326Z,19.85
2023-03-22T05:32:29.353Z,13.10
2023-03-22T05:34:56.572Z,13.02
2023-03-22T05:37:23.521Z,15.43
2023-03-22T05:39:50.484Z,14.13
2023-03-22T05:42:17.390Z,25.10
2023-03-22T05:44:44.159Z,20.98
2023-03-22T05:47:11.494Z,35.35
2023-03-22T05:49:38.365Z,33.17
2023-03-22T05:52:06.100Z,24.02
2023-03-22T05:54:32.982Z,14.35
2023-03-22T05:56:59.762Z,14.07
2023-03-22T05:59:27.241Z,16.83
2023-03-22T06:01:54.109Z,16.45
2023-03-22T06:04:21.083Z,18.33
2023-03-22T06:06:47.990Z,13.43
2023-03-22T06:09:17.717Z,14.00
2023-03-22T06:11:44.810Z,17.45
2023-03-22T06:14:11.703Z,12.25
2023-03-22T06:16:38.572Z,16.40
2023-03-22T06:19:05.547Z,15.88
2023-03-22T06:21:32.304Z,13.50
2023-03-22T06:23:59.041Z,16.00
2023-03-22T06:26:25.894Z,97.60
2023-03-22T06:28:52.715Z,59.80
2023-03-22T06:31:19.628Z,18.00
2023-03-22T06:33:46.605Z,13.75
2023-03-22T06:36:13.409Z,15.20
2023-03-22T06:38:40.286Z,15.95
2023-03-22T06:41:07.184Z,15.98
2023-03-22T06:43:34.030Z,15.80
2023-03-22T06:46:01.080Z,12.20
2023-03-22T06:48:27.967Z,16.17
2023-03-22T06:50:54.758Z,17.58
2023-03-22T06:53:21.621Z,17.80
2023-03-22T06:55:48.429Z,19.05
2023-03-22T06:58:15.336Z,20.77
2023-03-22T07:00:42.449Z,16.50
2023-03-22T07:03:09.341Z,20.90
2023-03-22T07:05:36.268Z,22.98
2023-03-22T07:08:03.238Z,22.60
2023-03-22T07:10:30.081Z,27.80
2023-03-22T07:12:57.346Z,20.95
2023-03-22T07:15:24.859Z,15.98
2023-03-22T07:17:52.223Z,20.00
2023-03-22T07:20:19.773Z,18.55
2023-03-22T07:22:46.609Z,19.35
2023-03-22T07:25:13.478Z,16.20
2023-03-22T07:27:40.596Z,18.98
2023-03-22T07:30:09.741Z,14.43
2023-03-22T07:32:36.889Z,14.85
2023-03-22T07:35:03.798Z,11.63
2023-03-22T07:37:30.791Z,11.75
2023-03-22T07:39:57.586Z,9.32
2023-03-22T07:42:24.400Z,14.63
2023-03-22T07:44:51.371Z,11.15
2023-03-22T07:47:27.217Z,11.57
2023-03-22T07:50:01.232Z,8.52
2023-03-22T07:52:28.091Z,10.18
2023-03-22T07:54:54.947Z,16.40
2023-03-22T07:57:21.756Z,9.95
2023-03-22T07:59:48.582Z,9.55
2023-03-22T08:02:16.184Z,10.48
2023-03-22T08:04:43.127Z,7.97
2023-03-22T08:07:09.976Z,9.25
2023-03-22T08:09:37.528Z,9.90
2023-03-22T08:12:04.547Z,15.00
2023-03-22T08:14:36.680Z,9.95
2023-03-22T08:17:05.074Z,13.98
2023-03-22T08:19:33.112Z,10.18
2023-03-22T08:22:00.041Z,12.55
2023-03-22T08:24:27.239Z,20.92
2023-03-22T08:26:54.491Z,10.05
2023-03-22T08:29:23.189Z,12.77
2023-03-22T08:31:51.154Z,10.38
2023-03-22T08:34:18.057Z,13.05
2023-03-22T08:36:44.846Z,10.80
2023-03-22T08:39:11.723Z,11.35
2023-03-22T08:41:39.408Z,18.88
2023-03-22T08:44:06.439Z,16.40
2023-03-22T08:46:33.484Z,13.82
2023-03-22T08:49:02.246Z,17.83
2023-03-22T08:51:29.157Z,16.55
2023-03-22T08:54:00.324Z,17.85
2023-03-22T08:56:27.379Z,11.77
2023-03-22T08:58:54.301Z,26.58
2023-03-22T09:01:21.395Z,17.52
2023-03-22T09:03:48.296Z,11.68
2023-03-22T09:06:15.436Z,15.35
2023-03-22T09:08:42.234Z,13.57
2023-03-22T09:11:10.362Z,14.95
2023-03-22T09:13:37.384Z,13.73
2023-03-22T09:16:06.562Z,10.35
2023-03-22T09:18:33.433Z,13.32
2023-03-22T09:21:00.316Z,8.60
2023-03-22T09:23:27.236Z,9.90
2023-03-22T09:25:54.087Z,12.77
2023-03-22T09:28:21.007Z,11.10
2023-03-22T09:30:47.911Z,8.70
2023-03-22T09:33:14.739Z,12.57
2023-03-22T09:35:42.737Z,9.30
2023-03-22T09:38:10.279Z,7.97
2023-03-22T09:40:49.800Z,5.43
2023-03-22T09:43:16.763Z,9.02
2023-03-22T09:45:46.288Z,13.18
2023-03-22T09:48:31.987Z,6.82
2023-03-22T09:50:58.894Z,9.07
2023-03-22T09:53:26.880Z,7.72
2023-03-22T09:56:15.604Z,6.55
2023-03-22T09:59:03.937Z,4.18
2023-03-22T10:01:43.768Z,12.23
2023-03-22T10:04:33.137Z,6.72
2023-03-22T10:10:04.691Z,8.05
2023-03-22T10:12:54.342Z,8.32
2023-03-22T10:15:29.642Z,4.15
2023-03-22T10:17:56.509Z,5.47
2023-03-22T10:20:46.390Z,5.00
2023-03-22T10:23:23.977Z,4.97
2023-03-22T10:25:50.833Z,3.00
2023-03-22T10:28:22.672Z,2.05
2023-03-22T10:30:56.491Z,4.25
2023-03-22T10:33:50.340Z,3.30
2023-03-22T10:36:19.176Z,11.05
2023-03-22T10:39:31.442Z,5.38
2023-03-22T10:42:00.023Z,5.30
2023-03-22T10:44:27.582Z,4.15
2023-03-22T10:46:55.714Z,6.22
2023-03-22T10:49:40.426Z,6.88
2023-03-22T10:52:33.566Z,4.03
2023-03-22T10:55:04.147Z,4.53
2023-03-22T10:57:31.373Z,4.07
2023-03-22T10:59:58.688Z,8.23
2023-03-22T11:02:27.911Z,3.90
2023-03-22T11:04:56.804Z,2.63
2023-03-22T11:07:39.657Z,4.40
2023-03-22T11:10:09.266Z,7.32
2023-03-22T11:12:39.858Z,8.73
2023-03-22T11:15:07.316Z,5.68
2023-03-22T11:17:36.052Z,4.03
2023-03-22T11:20:07.857Z,13.25
2023-03-22T11:22:39.913Z,14.85
2023-03-22T11:25:18.726Z,7.35
2023-03-22T11:27:53.892Z,16.02
2023-03-22T11:30:28.034Z,6.07
2023-03-22T11:33:02.047Z,8.70
2023-03-22T11:35:30.299Z,8.48
2023-03-22T11:37:57.257Z,9.10
2023-03-22T11:40:28.623Z,7.90
2023-03-22T11:43:15.630Z,20.55
2023-03-22T11:48:17.656Z,13.82
2023-03-22T11:50:45.350Z,8.27
2023-03-22T11:53:23.220Z,8.00
2023-03-22T11:55:51.381Z,12.15
2023-03-22T11:58:45.883Z,16.38
2023-03-22T12:01:21.603Z,6.72
2023-03-22T12:03:51.623Z,8.98
2023-03-22T12:06:27.854Z,10.95
2023-03-22T12:09:25.040Z,6.28
2023-03-22T12:11:53.484Z,13.30
2023-03-22T12:14:29.203Z,16.23
2023-03-22T12:17:02.535Z,8.50
2023-03-22T12:19:53.506Z,11.52
2023-03-22T12:22:23.133Z,4.45
2023-03-22T12:24:49.896Z,5.17
2023-03-22T12:27:19.770Z,4.20
2023-03-22T12:29:57.880Z,5.25
2023-03-22T12:32:30.792Z,4.75
2023-03-22T12:35:16.129Z,6.18
2023-03-22T12:37:46.437Z,6.00
2023-03-22T12:40:24.836Z,6.43
2023-03-22T12:43:15.385Z,12.50
2023-03-22T12:45:44.955Z,3.45
2023-03-22T12:48:18.384Z,11.80
2023-03-22T12:50:48.911Z,7.03
2023-03-22T12:53:16.711Z,11.52
2023-03-22T12:55:44.028Z,4.85
2023-03-22T12:58:13.101Z,5.78
2023-03-22T13:00:44.217Z,4.80
2023-03-22T13:03:20.220Z,2.88
2023-03-22T13:05:48.718Z,6.10
2023-03-22T13:08:22.449Z,5.60
2023-03-22T13:11:03.301Z,7.57
2023-03-22T13:13:30.101Z,8.65
2023-03-22T13:16:11.044Z,10.55
2023-03-22T13:18:38.315Z,5.95
2023-03-22T13:21:19.293Z,5.53
2023-03-22T13:24:08.823Z,3.25
2023-03-22T13:26:58.383Z,4.80
2023-03-22T13:29:38.082Z,5.50
2023-03-22T13:32:34.318Z,8.33
2023-03-22T13:35:01.644Z,12.52
2023-03-22T13:37:35.045Z,4.97
2023-03-22T13:40:24.906Z,4.65
2023-03-22T13:42:51.794Z,8.07
2023-03-22T13:45:33.441Z,3.92
2023-03-22T13:48:51.884Z,6.38
2023-03-22T13:51:39.496Z,10.13
2023-03-22T13:54:23.898Z,6.03
2023-03-22T13:56:57.075Z,10.32
2023-03-22T13:59:27.272Z,3.47
2023-03-22T14:02:15.311Z,5.60
2023-03-22T14:04:47.637Z,6.57
2023-03-22T14:07:33.786Z,7.00
2023-03-22T14:10:01.955Z,4.47
2023-03-22T14:12:31.299Z,6.65
2023-03-22T14:15:01.145Z,9.55
2023-03-22T14:17:58.209Z,3.63
2023-03-22T14:20:25.979Z,3.30
